Time;durP1;ratioP1;P1;durP2;ratioP2;P2;SDS_P1;SDS_P2;PMS_P1;PMS_P2;Temp;Humidity;BMP_temperature;BMP_pressure;BME280_temperature;BME280_humidity;BME280_pressure;Samples;Min_cycle;Max_cycle;Signal;HPM_P1;HPM_P2
2023/03/15 00:02:07;;;;;;;0.10;0.10;;;;;;;4.11;72.03;101273.72;5107527;28;20489;-80
2023/03/15 00:04:34;;;;;;;0.10;0.10;;;;;;;4.14;72.20;101268.50;5107822;28;20446;-80
2023/03/15 00:07:00;;;;;;;0.10;0.10;;;;;;;4.21;72.28;101265.13;5112030;28;20504;-80
2023/03/15 00:09:26;;;;;;;0.10;0.10;;;;;;;4.24;71.20;101276.50;5106007;28;20107;-82
2023/03/15 00:11:54;;;;;;;0.10;0.10;;;;;;;4.21;71.67;101274.72;5108871;28;20035;-81
2023/03/15 00:14:20;;;;;;;0.20;0.20;;;;;;;4.28;72.10;101273.94;5107965;28;20031;-80
2023/03/15 00:16:47;;;;;;;0.10;0.10;;;;;;;4.31;71.87;101270.47;5101460;28;20032;-80
2023/03/15 00:19:13;;;;;;;0.20;0.20;;;;;;;4.24;72.15;101268.63;5109432;28;20043;-82
2023/03/15 00:21:42;;;;;;;0.10;0.10;;;;;;;4.24;72.56;101268.63;5114842;27;20030;-80
2023/03/15 00:24:10;;;;;;;0.20;0.20;;;;;;;4.26;72.23;101272.16;5108949;28;20062;-81
2023/03/15 00:26:36;;;;;;;0.20;0.20;;;;;;;4.21;71.95;101274.72;5113051;28;20027;-82
2023/03/15 00:29:02;;;;;;;0.10;0.10;;;;;;;4.31;72.29;101279.25;5103337;28;20058;-83
2023/03/15 00:31:29;;;;;;;0.17;0.17;;;;;;;4.34;73.14;101292.38;5104033;27;20038;-80
2023/03/15 00:33:55;;;;;;;0.15;0.15;;;;;;;4.36;71.55;101282.78;5112422;28;20019;-81
2023/03/15 00:36:23;;;;;;;0.10;0.10;;;;;;;4.38;73.07;101288.06;5107992;28;20133;-82
2023/03/15 00:38:51;;;;;;;0.10;0.10;;;;;;;4.40;72.63;101299.47;5111459;28;20496;-82
2023/03/15 00:41:19;;;;;;;0.15;0.15;;;;;;;4.44;72.02;101301.25;5108421;28;20035;-81
2023/03/15 00:43:45;;;;;;;0.15;0.15;;;;;;;4.42;72.13;101313.47;5113852;28;20405;-81
2023/03/15 00:46:12;;;;;;;0.10;0.10;;;;;;;4.44;71.68;101313.50;5105198;28;20016;-81
2023/03/15 00:48:38;;;;;;;0.10;0.10;;;;;;;4.42;72.36;101316.09;5114657;28;20035;-81
2023/03/15 00:53:44;;;;;;;0.10;0.10;;;;;;;4.42;71.15;101315.22;5099178;27;20130;-83
2023/03/15 00:56:13;;;;;;;0.10;0.10;;;;;;;4.35;72.51;101314.25;5070807;28;20028;-81
2023/03/15 00:58:40;;;;;;;0.10;0.10;;;;;;;4.34;72.83;101321.22;5080328;28;20158;-81
2023/03/15 01:01:09;;;;;;;0.10;0.10;;;;;;;4.36;71.22;101326.50;5073178;28;20032;-81
2023/03/15 01:03:35;;;;;;;0.10;0.10;;;;;;;4.33;71.79;101327.34;5077695;28;20374;-81
2023/03/15 01:06:11;;;;;;;0.10;0.10;;;;;;;4.33;71.84;101326.47;5077148;28;20029;-82
2023/03/15 01:08:38;;;;;;;0.10;0.10;;;;;;;4.31;72.08;101325.56;5069963;28;20107;-82
2023/03/15 01:11:07;;;;;;;0.10;0.10;;;;;;;4.30;71.63;101321.16;5068769;28;20044;-82
2023/03/15 01:13:34;;;;;;;0.10;0.10;;;;;;;4.23;72.63;101324.59;5074694;28;20046;-81
2023/03/15 01:16:00;;;;;;;0.10;0.10;;;;;;;4.25;71.82;101322.84;5072990;28;20044;-82
2023/03/15 01:18:27;;;;;;;0.10;0.10;;;;;;;4.23;71.23;101328.06;5074105;28;20028;-82
2023/03/15 01:20:53;;;;;;;0.20;0.20;;;;;;;4.20;72.25;101328.91;5079369;28;20029;-82
2023/03/15 01:23:19;;;;;;;0.10;0.10;;;;;;;4.23;72.22;101335.09;5071759;28;20025;-81
2023/03/15 01:25:46;;;;;;;0.10;0.10;;;;;;;4.23;71.91;101338.56;5066874;28;20460;-81
2023/03/15 01:28:12;;;;;;;0.10;0.10;;;;;;;4.20;71.83;101342.03;5073435;28;20058;-81
2023/03/15 01:30:38;;;;;;;0.20;0.20;;;;;;;4.20;72.03;101341.16;5067597;28;20082;-81
2023/03/15 01:33:04;;;;;;;0.20;0.20;;;;;;;4.18;72.21;101349.00;5068672;28;20094;-82
2023/03/15 01:35:31;;;;;;;0.20;0.20;;;;;;;4.15;72.02;101350.69;5070060;28;20039;-81
2023/03/15 01:37:57;;;;;;;0.10;0.10;;;;;;;4.16;72.38;101355.06;5072266;28;20033;-81
2023/03/15 01:40:23;;;;;;;0.10;0.10;;;;;;;4.12;72.26;101359.38;5062682;28;20033;-81
2023/03/15 01:42:52;;;;;;;0.10;0.10;;;;;;;4.14;71.82;101360.31;5070974;28;20073;-82
2023/03/15 01:48:36;;;;;;;0.13;0.13;;;;;;;4.12;72.35;101369.00;5096048;27;20953;-81
2023/03/15 01:51:07;;;;;;;0.10;0.10;;;;;;;4.09;72.13;101371.56;5091325;28;20040;-81
2023/03/15 01:53:35;;;;;;;0.10;0.10;;;;;;;4.06;72.21;101375.03;5088832;28;20036;-81
2023/03/15 01:56:03;;;;;;;0.10;0.10;;;;;;;4.03;72.06;101375.00;5087793;28;20028;-81
2023/03/15 01:58:29;;;;;;;0.10;0.10;;;;;;;4.05;72.28;101394.28;5088383;28;20052;-81
2023/03/15 02:00:55;;;;;;;0.20;0.20;;;;;;;4.05;72.44;101383.78;5084613;28;20210;-81
2023/03/15 02:03:28;;;;;;;0.10;0.10;;;;;;;4.07;72.35;101376.81;5087221;28;20040;-81
2023/03/15 02:05:56;;;;;;;;;;;;;;;4.18;72.54;101390.94;5092844;28;20370;-81
2023/03/15 02:08:27;;;;;;;0.10;0.10;;;;;;;4.12;72.57;101390.84;5089996;28;20301;-81
2023/03/15 02:10:57;;;;;;;0.10;0.10;;;;;;;4.12;72.74;101390.84;5091298;28;20036;-82
2023/03/15 02:13:26;;;;;;;0.17;0.17;;;;;;;4.15;73.01;101396.16;5081024;28;20044;-81
2023/03/15 02:15:53;;;;;;;0.10;0.10;;;;;;;4.15;72.80;101401.41;5082256;28;20028;-84
2023/03/15 02:18:20;;;;;;;0.10;0.10;;;;;;;4.16;72.69;101402.28;5081966;28;20431;-83
2023/03/15 02:21:07;;;;;;;0.73;0.73;;;;;;;4.17;72.89;101404.91;5100137;28;20052;-83
2023/03/15 02:23:33;;;;;;;0.10;0.10;;;;;;;4.11;72.43;101407.47;5084724;28;20124;-82
2023/03/15 02:26:33;;;;;;;0.15;0.15;;;;;;;4.17;72.73;101407.53;5088262;28;20071;-82
2023/03/15 02:29:00;;;;;;;0.20;0.20;;;;;;;4.11;72.75;101412.72;5082834;28;20115;-83
2023/03/15 02:31:26;;;;;;;0.10;0.10;;;;;;;4.11;72.96;101412.72;5090868;28;20024;-83
2023/03/15 02:33:54;;;;;;;0.10;0.10;;;;;;;4.11;73.21;101412.72;5100362;28;20024;-83
2023/03/15 02:38:56;;;;;;;0.10;0.10;;;;;;;4.09;73.04;101421.41;5105623;27;1193195;-82
2023/03/15 02:41:29;;;;;;;0.10;0.10;;;;;;;4.09;72.81;101426.63;5130545;28;20039;-82
2023/03/15 02:44:02;;;;;;;0.10;0.10;;;;;;;4.07;73.23;101428.38;5132674;28;20070;-80
2023/03/15 02:46:29;;;;;;;0.20;0.20;;;;;;;4.02;73.42;101426.53;5109145;28;20085;-80
2023/03/15 02:48:55;;;;;;;0.10;0.10;;;;;;;4.01;72.96;101424.81;5110422;28;20039;-82
2023/03/15 02:51:23;;;;;;;0.10;0.10;;;;;;;4.00;72.96;101427.38;5109807;28;20054;-81
2023/03/15 02:53:50;;;;;;;0.10;0.10;;;;;;;3.98;72.92;101429.13;5110506;28;20489;-81
2023/03/15 02:56:16;;;;;;;0.10;0.10;;;;;;;3.96;73.39;101436.06;5108576;28;20119;-82
2023/03/15 02:58:44;;;;;;;0.10;0.10;;;;;;;3.96;73.20;101436.06;5109782;28;20016;-82
2023/03/15 03:01:12;;;;;;;0.10;0.10;;;;;;;3.93;72.56;101447.38;5107936;28;20477;-80
2023/03/15 03:03:40;;;;;;;0.20;0.20;;;;;;;3.91;72.94;101451.69;5106806;28;20099;-83
2023/03/15 03:06:07;;;;;;;0.10;0.10;;;;;;;3.89;72.80;101456.94;5106884;28;20035;-81
2023/03/15 03:08:33;;;;;;;0.10;0.10;;;;;;;3.87;73.29;101458.63;5107826;28;20469;-83
2023/03/15 03:10:59;;;;;;;0.20;0.20;;;;;;;3.87;72.97;101463.88;5106489;28;20039;-83
2023/03/15 03:13:25;;;;;;;0.10;0.10;;;;;;;3.85;72.03;101473.47;5108963;28;20028;-83
2023/03/15 03:15:57;;;;;;;0.10;0.10;;;;;;;3.84;72.66;101471.69;5103188;28;20032;-83
2023/03/15 03:18:25;;;;;;;0.10;0.10;;;;;;;3.83;72.59;101488.28;5107705;28;20521;-83
2023/03/15 03:20:56;;;;;;;0.20;0.20;;;;;;;3.83;73.08;101493.50;5108861;28;20039;-83
2023/03/15 03:23:24;;;;;;;0.20;0.20;;;;;;;3.82;73.08;101494.38;5105395;28;20465;-83
2023/03/15 03:25:52;;;;;;;0.10;0.10;;;;;;;3.85;73.42;101490.91;5107167;28;20040;-83
2023/03/15 03:28:20;;;;;;;0.10;0.10;;;;;;;3.88;72.88;101502.34;5108477;28;20434;-83
2023/03/15 03:30:46;;;;;;;0.10;0.10;;;;;;;3.88;72.79;101506.72;5106165;28;20035;-83
2023/03/15 03:33:13;;;;;;;0.10;0.10;;;;;;;3.89;73.55;101508.50;5105718;28;20032;-83
2023/03/15 03:35:40;;;;;;;0.10;0.10;;;;;;;3.95;73.16;101512.94;5107609;28;20045;-83
2023/03/15 03:38:07;;;;;;;0.13;0.13;;;;;;;3.98;73.13;101502.53;5108372;28;20036;-84
2023/03/15 03:40:33;;;;;;;0.20;0.20;;;;;;;4.05;73.00;101507.91;5107209;28;20038;-83
2023/03/15 03:42:59;;;;;;;0.13;0.13;;;;;;;4.10;73.28;101513.22;5107665;28;20046;-84
2023/03/15 03:45:25;;;;;;;0.10;0.10;;;;;;;4.15;73.34;101514.19;5107631;28;20032;-82
2023/03/15 03:47:52;;;;;;;0.10;0.10;;;;;;;4.20;73.84;101509.91;5107035;28;20032;-82
2023/03/15 03:50:18;;;;;;;0.10;0.10;;;;;;;4.24;73.98;101516.09;5094318;28;20485;-82
2023/03/15 03:52:44;;;;;;;0.20;0.20;;;;;;;4.30;74.05;101520.53;5094914;28;20032;-81
2023/03/15 03:55:12;;;;;;;0.15;0.15;;;;;;;4.35;73.48;101530.25;5088046;28;20386;-81
2023/03/15 03:57:39;;;;;;;0.20;0.20;;;;;;;4.38;73.76;101539.94;5093746;28;20035;-84
2023/03/15 04:00:08;;;;;;;0.10;0.10;;;;;;;4.36;73.96;101546.88;5093363;28;20043;-81
2023/03/15 04:02:34;;;;;;;0.10;0.10;;;;;;;4.39;74.07;101549.56;5092939;28;20036;-81
2023/03/15 04:05:01;;;;;;;0.10;0.10;;;;;;;4.41;73.93;101553.13;5090525;28;20111;-81
2023/03/15 04:07:27;;;;;;;0.20;0.20;;;;;;;4.40;74.21;101558.31;5094664;28;20042;-82
2023/03/15 04:09:53;;;;;;;0.10;0.10;;;;;;;4.38;74.07;101567.03;5092857;28;20044;-82
2023/03/15 04:12:19;;;;;;;0.10;0.10;;;;;;;4.35;73.93;101566.13;5094239;28;20489;-81
2023/03/15 04:14:45;;;;;;;0.10;0.10;;;;;;;4.28;73.86;101583.47;5092748;28;20046;-80
2023/03/15 04:17:11;;;;;;;0.10;0.10;;;;;;;4.22;73.63;101578.13;5092048;28;20032;-81
2023/03/15 04:19:38;;;;;;;0.10;0.10;;;;;;;4.18;72.83;101571.94;5093350;28;20028;-80
2023/03/15 04:22:05;;;;;;;0.10;0.10;;;;;;;4.14;73.19;101583.25;5092628;28;20043;-81
2023/03/15 04:24:34;;;;;;;0.10;0.10;;;;;;;4.15;73.15;101587.63;5092409;28;20027;-81
2023/03/15 04:27:00;;;;;;;0.10;0.10;;;;;;;4.11;72.95;101585.81;5092373;28;20036;-80
2023/03/15 04:29:27;;;;;;;0.17;0.17;;;;;;;4.10;72.70;101591.91;5093098;28;20478;-81
2023/03/15 04:32:00;;;;;;;0.10;0.10;;;;;;;4.08;72.81;101585.75;5092559;28;20089;-80
2023/03/15 04:34:27;;;;;;;0.10;0.10;;;;;;;4.10;72.55;101591.00;5090817;28;20032;-81
2023/03/15 04:36:53;;;;;;;0.10;0.10;;;;;;;4.11;73.08;101591.06;5091823;28;20024;-82
2023/03/15 04:39:20;;;;;;;0.10;0.10;;;;;;;4.09;72.63;101603.25;5091978;28;20062;-81
2023/03/15 04:41:46;;;;;;;0.10;0.10;;;;;;;4.09;72.93;101600.63;5094553;28;20031;-81
2023/03/15 04:44:15;;;;;;;0.10;0.10;;;;;;;4.07;73.01;101602.31;5106972;28;20118;-82
2023/03/15 04:46:41;;;;;;;0.20;0.20;;;;;;;4.08;72.88;101604.09;5108936;28;20034;-82
2023/03/15 04:49:08;;;;;;;0.10;0.10;;;;;;;4.09;72.79;101610.22;5109926;28;20028;-81
2023/03/15 04:51:34;;;;;;;0.10;0.10;;;;;;;4.09;72.78;101605.88;5098452;28;20059;-82
2023/03/15 04:54:01;;;;;;;0.10;0.10;;;;;;;4.09;72.73;101615.47;5094205;28;20047;-83
2023/03/15 04:56:29;;;;;;;0.10;0.10;;;;;;;4.11;72.24;101614.66;5092622;28;20039;-82
2023/03/15 04:58:55;;;;;;;0.10;0.10;;;;;;;4.12;72.31;101620.78;5094125;28;20067;-82
2023/03/15 05:01:27;;;;;;;0.10;0.10;;;;;;;4.11;72.69;101625.16;5095402;28;20459;-83
2023/03/15 05:03:53;;;;;;;0.20;0.20;;;;;;;4.10;72.61;101627.72;5089413;28;20023;-83
2023/03/15 05:06:19;;;;;;;0.10;0.10;;;;;;;4.08;72.06;101619.84;5087385;28;20039;-81
2023/03/15 05:08:45;;;;;;;0.10;0.10;;;;;;;4.05;72.55;101625.03;5094906;28;20111;-81
2023/03/15 05:11:12;;;;;;;0.10;0.10;;;;;;;4.04;72.12;101639.00;5093147;28;20088;-81
2023/03/15 05:13:38;;;;;;;0.10;0.10;;;;;;;3.99;72.51;101640.66;5093225;28;20024;-83
2023/03/15 05:16:04;;;;;;;0.10;0.10;;;;;;;4.01;72.20;101638.91;5094395;28;20035;-81
2023/03/15 05:18:30;;;;;;;0.25;0.25;;;;;;;4.05;72.44;101643.41;5094189;28;20039;-80
2023/03/15 05:20:56;;;;;;;0.10;0.10;;;;;;;4.08;72.11;101643.44;5094513;28;20050;-81
2023/03/15 05:23:24;;;;;;;0.20;0.20;;;;;;;4.13;72.68;101652.28;5094775;28;20035;-81
2023/03/15 05:25:52;;;;;;;0.20;0.20;;;;;;;4.18;72.67;101653.25;5088857;28;20073;-82
2023/03/15 05:28:20;;;;;;;0.10;0.10;;;;;;;4.23;72.63;101657.72;5094347;28;20099;-82
2023/03/15 05:30:47;;;;;;;0.10;0.10;;;;;;;4.28;72.65;101656.06;5095916;28;20299;-83
2023/03/15 05:33:13;;;;;;;0.10;0.10;;;;;;;4.31;72.66;101653.47;5094003;28;20035;-82
2023/03/15 05:35:39;;;;;;;0.20;0.20;;;;;;;4.35;72.59;101645.72;5091887;28;20065;-82
2023/03/15 05:38:05;;;;;;;0.10;0.10;;;;;;;4.38;72.85;101651.00;5092432;28;20441;-81
2023/03/15 05:40:32;;;;;;;0.10;0.10;;;;;;;4.40;72.53;101656.28;5092247;28;20084;-81
2023/03/15 05:42:58;;;;;;;0.10;0.10;;;;;;;4.41;72.52;101658.06;5092861;28;20067;-81
2023/03/15 05:45:24;;;;;;;0.10;0.10;;;;;;;4.40;72.70;101664.16;5100645;28;20145;-81
2023/03/15 05:47:50;;;;;;;0.10;0.10;;;;;;;4.38;72.74;101665.88;5092837;28;20036;-83
2023/03/15 05:50:17;;;;;;;0.10;0.10;;;;;;;4.32;72.73;101677.13;5094204;28;20509;-83
2023/03/15 05:52:43;;;;;;;0.10;0.10;;;;;;;4.29;72.83;101678.81;5092578;28;20024;-81
2023/03/15 05:55:09;;;;;;;0.10;0.10;;;;;;;4.24;72.69;101683.06;5089872;28;20039;-81
2023/03/15 05:57:35;;;;;;;0.10;0.10;;;;;;;4.17;72.84;101693.44;5090554;28;20066;-81
2023/03/15 06:00:01;;;;;;;0.10;0.10;;;;;;;4.11;72.40;101692.44;5092529;28;20089;-82
2023/03/15 06:02:27;;;;;;;0.20;0.20;;;;;;;4.06;72.34;101702.84;5089217;28;20032;-83
2023/03/15 06:04:53;;;;;;;0.20;0.20;;;;;;;4.01;72.28;101699.22;5095113;28;20024;-82
2023/03/15 06:07:20;;;;;;;0.10;0.10;;;;;;;3.97;71.99;101700.03;5089609;28;20049;-83
2023/03/15 06:09:46;;;;;;;0.10;0.10;;;;;;;3.93;72.57;101708.69;5090313;28;20105;-83
2023/03/15 06:12:12;;;;;;;0.15;0.15;;;;;;;3.91;72.14;101716.50;5091011;28;20119;-82
2023/03/15 06:14:38;;;;;;;0.10;0.10;;;;;;;3.87;71.96;101728.66;5089415;28;20627;-82
2023/03/15 06:17:04;;;;;;;0.20;0.20;;;;;;;3.86;72.04;101728.63;5088502;28;20054;-81
2023/03/15 06:19:30;;;;;;;0.17;0.17;;;;;;;3.84;72.02;101733.84;5091966;28;20058;-81
2023/03/15 06:21:56;;;;;;;0.10;0.10;;;;;;;3.84;72.43;101735.59;5087675;28;20081;-82
2023/03/15 06:24:23;;;;;;;0.10;0.10;;;;;;;3.83;72.09;101749.56;5086939;28;20032;-81
2023/03/15 06:26:50;;;;;;;0.10;0.10;;;;;;;3.82;72.67;101753.03;5080901;28;20055;-80
2023/03/15 06:29:16;;;;;;;0.13;0.13;;;;;;;3.80;72.53;101760.84;5090310;28;20494;-81
2023/03/15 06:31:42;;;;;;;0.10;0.10;;;;;;;3.80;72.76;101763.47;5090536;28;20035;-81
2023/03/15 06:34:08;;;;;;;0.20;0.20;;;;;;;3.80;72.29;101766.09;5077674;28;21587;-81
2023/03/15 06:36:35;;;;;;;0.10;0.10;;;;;;;3.79;72.85;101772.19;5087175;28;20511;-81
2023/03/15 06:39:02;;;;;;;0.10;0.10;;;;;;;3.80;72.56;101776.59;5092385;28;20039;-81
2023/03/15 06:41:28;;;;;;;0.10;0.10;;;;;;;3.82;72.67;101780.09;5089435;28;20036;-83
2023/03/15 06:43:54;;;;;;;0.20;0.20;;;;;;;3.83;72.99;101779.25;5089203;28;20512;-80
2023/03/15 06:46:20;;;;;;;0.20;0.20;;;;;;;3.85;72.88;101782.81;5088803;28;20032;-80
2023/03/15 06:48:46;;;;;;;0.10;0.10;;;;;;;3.87;72.92;101788.97;5089208;28;20589;-81
2023/03/15 06:51:12;;;;;;;0.10;0.10;;;;;;;3.88;72.70;101785.50;5087859;28;20059;-80
2023/03/15 06:53:38;;;;;;;0.20;0.20;;;;;;;3.91;72.87;101791.66;5090709;28;20035;-80
2023/03/15 06:56:04;;;;;;;0.13;0.13;;;;;;;3.92;72.44;101796.06;5084011;28;20028;-81
2023/03/15 06:58:30;;;;;;;0.10;0.10;;;;;;;3.88;72.83;101801.22;5092540;28;20035;-81
2023/03/15 07:00:56;;;;;;;0.10;0.10;;;;;;;3.86;72.41;101802.94;5088820;28;20032;-82
2023/03/15 07:03:22;;;;;;;0.10;0.10;;;;;;;3.88;72.27;101803.84;5089750;28;20107;-82
2023/03/15 07:05:51;;;;;;;0.10;0.10;;;;;;;3.88;72.46;101801.22;5088373;28;20043;-82
2023/03/15 07:08:18;;;;;;;0.10;0.10;;;;;;;3.91;72.31;101804.78;5085685;28;20035;-81
2023/03/15 07:10:45;;;;;;;0.20;0.20;;;;;;;3.94;72.28;101810.06;5089567;28;20024;-82
2023/03/15 07:13:12;;;;;;;0.10;0.10;;;;;;;3.97;72.49;101816.28;5088422;28;20037;-82
2023/03/15 07:15:38;;;;;;;0.20;0.20;;;;;;;3.99;72.46;101818.97;5083970;28;20034;-82
2023/03/15 07:18:04;;;;;;;0.10;0.10;;;;;;;4.00;72.85;101821.59;5084848;28;20084;-81
2023/03/15 07:20:30;;;;;;;0.10;0.10;;;;;;;4.06;72.69;101826.09;5087962;28;20039;-80
2023/03/15 07:22:56;;;;;;;0.10;0.10;;;;;;;4.07;72.93;101822.63;5088784;28;20032;-82
2023/03/15 07:25:24;;;;;;;0.10;0.10;;;;;;;4.09;72.70;101828.81;5089979;28;20510;-81
2023/03/15 07:27:51;;;;;;;0.10;0.10;;;;;;;4.14;72.58;101827.16;5080015;28;20024;-82
2023/03/15 07:30:19;;;;;;;0.10;0.10;;;;;;;4.18;72.58;101833.38;5092418;28;20035;-83
2023/03/15 07:32:45;;;;;;;0.17;0.17;;;;;;;4.23;73.07;101833.47;5088784;28;20024;-81
2023/03/15 07:35:12;;;;;;;0.10;0.10;;;;;;;4.26;72.87;101834.44;5093703;28;20405;-82
2023/03/15 07:37:39;;;;;;;0.10;0.10;;;;;;;4.29;72.43;101831.84;5094388;28;20459;-82
2023/03/15 07:40:09;;;;;;;0.10;0.10;;;;;;;4.30;73.11;101831.00;5094945;28;20028;-82
2023/03/15 07:42:36;;;;;;;0.10;0.10;;;;;;;4.32;72.97;101839.78;5093078;28;20024;-81
2023/03/15 07:45:03;;;;;;;0.10;0.10;;;;;;;4.35;72.39;101839.00;5094560;28;20031;-80
2023/03/15 07:47:30;;;;;;;0.65;0.65;;;;;;;4.36;72.63;101852.13;5091836;28;20427;-82
2023/03/15 07:49:56;;;;;;;0.30;0.30;;;;;;;4.40;72.13;101860.97;5089485;28;20024;-81
2023/03/15 07:52:23;;;;;;;0.10;0.10;;;;;;;4.41;72.10;101860.13;5090388;28;20024;-81
2023/03/15 07:54:49;;;;;;;0.10;0.10;;;;;;;4.41;71.61;101869.72;5093734;28;20382;-80
2023/03/15 07:57:15;;;;;;;0.17;0.17;;;;;;;4.45;71.81;101875.06;5089365;28;20501;-80
2023/03/15 07:59:41;;;;;;;0.10;0.10;;;;;;;4.48;71.24;101872.50;5091810;28;20052;-81
2023/03/15 08:02:13;;;;;;;0.10;0.10;;;;;;;4.52;71.14;101878.69;5095012;28;20541;-82
2023/03/15 08:04:39;;;;;;;0.10;0.10;;;;;;;4.56;70.83;101885.81;5094599;28;20110;-80
2023/03/15 08:07:06;;;;;;;0.20;0.20;;;;;;;4.63;71.31;101886.81;5090952;28;20016;-81
2023/03/15 08:09:33;;;;;;;0.30;0.30;;;;;;;4.65;70.63;101895.63;5095260;28;20039;-81
2023/03/15 08:12:00;;;;;;;0.20;0.20;;;;;;;4.67;70.45;101894.81;5091565;28;20016;-80
2023/03/15 08:14:26;;;;;;;0.10;0.10;;;;;;;4.74;70.27;101898.44;5093397;28;20039;-81
2023/03/15 08:16:52;;;;;;;0.10;0.10;;;;;;;4.76;70.45;101899.34;5089462;28;20024;-81
2023/03/15 08:19:18;;;;;;;0.10;0.10;;;;;;;4.83;70.50;101900.34;5090602;28;20495;-82
2023/03/15 08:21:44;;;;;;;0.10;0.10;;;;;;;4.87;70.55;101910.06;5090262;28;20080;-82
2023/03/15 08:24:11;;;;;;;0.10;0.10;;;;;;;4.92;70.70;101908.44;5092852;28;20024;-83
2023/03/15 08:26:38;;;;;;;0.10;0.10;;;;;;;4.97;70.52;101911.13;5096984;28;20507;-81
2023/03/15 08:29:04;;;;;;;0.20;0.20;;;;;;;5.02;70.83;101913.03;5097680;28;20077;-81
2023/03/15 08:31:31;;;;;;;0.52;0.52;;;;;;;5.11;70.44;101917.56;5098169;28;20051;-83
2023/03/15 08:33:57;;;;;;;0.10;0.10;;;;;;;5.15;70.37;101919.38;5096925;28;20028;-82
2023/03/15 08:36:23;;;;;;;0.20;0.20;;;;;;;5.18;70.02;101918.56;5096473;28;20155;-82
2023/03/15 08:38:49;;;;;;;0.10;0.10;;;;;;;5.25;69.46;101916.97;5096900;28;20059;-82
2023/03/15 08:41:16;;;;;;;0.10;0.10;;;;;;;5.30;69.57;101929.31;5097043;28;20444;-84
2023/03/15 08:43:42;;;;;;;0.10;0.10;;;;;;;5.36;69.78;101928.56;5093946;28;20028;-83
2023/03/15 08:46:08;;;;;;;0.10;0.10;;;;;;;5.41;70.33;101932.16;5095989;28;20059;-81
2023/03/15 08:48:34;;;;;;;0.10;0.10;;;;;;;5.47;69.61;101924.38;5097982;28;20034;-83
2023/03/15 08:51:05;;;;;;;0.10;0.10;;;;;;;5.63;70.38;101927.28;5098152;28;20032;-83
2023/03/15 08:53:32;;;;;;;0.40;0.40;;;;;;;5.71;70.35;101925.69;5104194;28;20444;-83
2023/03/15 08:55:58;;;;;;;0.15;0.15;;;;;;;5.80;70.06;101922.31;5096303;28;20028;-82
2023/03/15 08:58:24;;;;;;;0.10;0.10;;;;;;;5.85;69.07;101925.03;5095711;28;20039;-83
2023/03/15 09:00:53;;;;;;;0.10;0.10;;;;;;;5.95;68.65;101924.31;5094598;28;20508;-83
2023/03/15 09:03:21;;;;;;;0.20;0.20;;;;;;;6.04;69.63;101921.00;5094965;28;20028;-83
2023/03/15 09:05:47;;;;;;;0.10;0.10;;;;;;;6.10;68.90;101921.09;5096304;28;20026;-83
2023/03/15 09:08:15;;;;;;;0.10;0.10;;;;;;;6.14;67.94;101926.44;5093729;28;20040;-84
2023/03/15 09:10:42;;;;;;;0.10;0.10;;;;;;;6.25;68.00;101928.34;5083595;28;20105;-83
2023/03/15 09:13:08;;;;;;;0.10;0.10;;;;;;;6.31;67.05;101923.19;5094285;28;20023;-82
2023/03/15 09:15:34;;;;;;;0.13;0.13;;;;;;;6.38;65.59;101917.16;5094647;28;20036;-83
2023/03/15 09:18:00;;;;;;;0.10;0.10;;;;;;;6.47;67.20;101912.00;5095800;28;20024;-82
2023/03/15 09:20:27;;;;;;;0.10;0.10;;;;;;;6.55;66.01;101914.72;5095472;28;20024;-82
2023/03/15 09:22:55;;;;;;;0.10;0.10;;;;;;;6.64;66.51;101913.97;5096787;28;20032;-83
2023/03/15 09:25:23;;;;;;;0.10;0.10;;;;;;;6.73;65.61;101910.56;5093698;28;20595;-82
2023/03/15 09:27:50;;;;;;;0.20;0.20;;;;;;;6.80;65.18;101902.78;5094316;28;20482;-83
2023/03/15 09:30:17;;;;;;;0.10;0.10;;;;;;;6.90;65.23;101902.91;5093452;28;20071;-83
2023/03/15 09:32:44;;;;;;;0.20;0.20;;;;;;;6.99;65.04;101907.41;5093103;28;20024;-82
2023/03/15 09:35:14;;;;;;;0.10;0.10;;;;;;;7.10;65.94;101916.31;5087862;28;20036;-82
2023/03/15 09:37:41;;;;;;;0.10;0.10;;;;;;;7.15;63.88;101913.72;5096606;28;20028;-82
2023/03/15 09:40:29;;;;;;;0.10;0.10;;;;;;;7.25;64.63;101926.13;5088129;28;20093;-83
2023/03/15 09:43:35;;;;;;;0.20;0.20;;;;;;;7.37;62.79;101930.69;5092457;28;20036;-82
2023/03/15 09:49:13;;;;;;;0.10;0.10;;;;;;;7.41;59.63;101927.19;5116247;27;1195392;-83
2023/03/15 09:52:02;;;;;;;0.20;0.20;;;;;;;7.56;63.55;101926.47;5127598;28;20024;-84
2023/03/15 09:54:48;;;;;;;0.20;0.20;;;;;;;7.63;60.50;101933.56;5132225;27;20052;-83
2023/03/15 09:57:20;;;;;;;0.20;0.20;;;;;;;7.64;59.87;101930.06;5119911;27;20028;-83
2023/03/15 09:59:51;;;;;;;0.10;0.10;;;;;;;7.75;61.51;101927.53;5117397;28;20028;-83
2023/03/15 10:05:05;;;;;;;0.10;0.10;;;;;;;7.96;62.10;101934.75;5091361;27;20356;-83
2023/03/15 10:07:31;;;;;;;0.10;0.10;;;;;;;8.00;58.53;101933.91;5092144;28;20044;-83
2023/03/15 10:09:58;;;;;;;0.10;0.10;;;;;;;8.11;61.33;101936.63;5098101;28;20043;-81
2023/03/15 10:12:41;;;;;;;0.10;0.10;;;;;;;8.17;56.07;101941.06;5092459;28;20040;-82
2023/03/15 10:15:47;;;;;;;0.10;0.10;;;;;;;8.28;57.18;101939.41;5092475;28;20035;-83
2023/03/15 10:18:40;;;;;;;0.10;0.10;;;;;;;8.28;52.84;101939.41;5090565;28;20036;-84
2023/03/15 10:21:32;;;;;;;0.10;0.10;;;;;;;8.36;57.35;101936.81;5096920;28;20040;-83
2023/03/15 10:24:02;;;;;;;0.10;0.10;;;;;;;8.32;54.41;101935.88;5092790;28;20039;-83
2023/03/15 10:26:34;;;;;;;0.10;0.10;;;;;;;8.41;58.38;101946.53;5086467;28;20044;-79
2023/03/15 10:29:08;;;;;;;0.20;0.20;;;;;;;8.46;58.86;101948.31;5093119;28;20030;-82
2023/03/15 10:31:39;;;;;;;0.10;0.10;;;;;;;8.50;53.11;101947.47;5091412;28;20479;-81
2023/03/15 10:34:08;;;;;;;0.10;0.10;;;;;;;8.59;55.20;101950.19;5094164;28;20028;-81
2023/03/15 10:36:34;;;;;;;0.10;0.10;;;;;;;8.62;52.40;101958.13;5104479;28;20040;-80
2023/03/15 10:39:00;;;;;;;0.10;0.10;;;;;;;8.73;56.99;101952.91;5086280;28;20039;-81
2023/03/15 10:41:35;;;;;;;0.10;0.10;;;;;;;8.81;53.60;101955.59;5090278;28;20131;-82
2023/03/15 10:44:04;;;;;;;0.10;0.10;;;;;;;8.82;51.62;101952.97;5088653;28;20115;-81
2023/03/15 10:46:30;;;;;;;0.10;0.10;;;;;;;8.90;49.79;101967.09;5084549;28;20370;-83
2023/03/15 10:51:40;;;;;;;0.10;0.10;;;;;;;9.10;52.49;101970.69;5087593;28;20405;-85
2023/03/15 10:54:23;;;;;;;0.20;0.20;;;;;;;9.12;49.22;101974.25;5067203;28;20029;-87
2023/03/15 10:59:35;;;;;;;0.10;0.10;;;;;;;9.18;50.79;101976.91;5099358;27;20385;-83
2023/03/15 11:02:19;;;;;;;0.10;0.10;;;;;;;9.32;48.81;101984.91;5098845;28;20350;-83
2023/03/15 11:04:57;;;;;;;0.10;0.10;;;;;;;9.35;48.67;101980.50;5086267;28;20488;-84
2023/03/15 11:07:24;;;;;;;0.10;0.10;;;;;;;9.44;48.01;101984.06;5086161;28;20036;-82
2023/03/15 11:09:57;;;;;;;0.40;0.40;;;;;;;9.52;49.74;101988.50;5090048;28;20027;-83
2023/03/15 11:12:26;;;;;;;0.52;0.50;;;;;;;9.59;48.01;101993.81;5091260;28;20123;-83
2023/03/15 11:15:00;;;;;;;0.10;0.10;;;;;;;9.66;49.38;101993.81;5090009;28;20039;-83
2023/03/15 11:17:30;;;;;;;0.13;0.13;;;;;;;9.67;45.36;101992.03;5085008;28;20114;-83
2023/03/15 11:20:11;;;;;;;0.10;0.10;;;;;;;9.70;46.87;101992.94;5091200;28;20044;-82
2023/03/15 11:22:38;;;;;;;6.22;2.60;;;;;;;9.74;46.88;101992.97;5090246;28;20028;-82
2023/03/15 11:25:11;;;;;;;1.33;1.23;;;;;;;9.83;47.01;101983.28;5087790;28;20032;-83
2023/03/15 11:27:37;;;;;;;0.10;0.10;;;;;;;9.91;47.58;101980.63;5093859;28;20081;-83
2023/03/15 11:30:04;;;;;;;0.10;0.10;;;;;;;10.08;47.78;101982.41;5095901;28;20068;-84
2023/03/15 11:32:31;;;;;;;0.20;0.20;;;;;;;10.19;47.81;101975.34;5092072;28;20092;-81
2023/03/15 11:43:09;;;;;;;0.10;0.10;;;;;;;10.32;43.70;101977.09;5111294;27;1181858;-83
2023/03/15 11:45:46;;;;;;;0.10;0.10;;;;;;;10.54;45.58;101977.09;5117151;28;20028;-85
2023/03/15 11:48:47;;;;;;;0.10;0.10;;;;;;;10.64;46.09;101978.88;5114123;28;20024;-85
2023/03/15 11:51:13;;;;;;;0.20;0.20;;;;;;;10.61;44.25;101962.09;5107075;28;20026;-85
2023/03/15 11:54:16;;;;;;;5.03;0.40;;;;;;;10.75;44.17;101970.88;5107674;28;20028;-84
2023/03/15 11:59:32;;;;;;;0.10;0.10;;;;;;;10.81;43.46;101968.19;5117087;27;20388;-84
2023/03/15 12:04:58;;;;;;;0.10;0.10;;;;;;;10.94;42.36;101977.03;4836875;27;8813577;-84
2023/03/15 12:07:30;;;;;;;0.10;0.10;;;;;;;11.04;42.35;101972.56;5129120;27;20046;-83
2023/03/15 12:13:04;;;;;;;0.10;0.10;;;;;;;11.04;42.10;101971.66;5104707;27;1200616;-83
2023/03/15 12:18:43;;;;;;;0.10;0.10;;;;;;;11.15;44.17;101985.78;5194345;27;20508;-84
2023/03/15 12:21:18;;;;;;;0.10;0.10;;;;;;;11.12;42.62;101980.50;5170540;27;20076;-87